Time;durP1;ratioP1;P1;durP2;ratioP2;P2;SDS_P1;SDS_P2;PMS_P1;PMS_P2;Temp;Humidity;BMP_temperature;BMP_pressure;BME280_temperature;BME280_humidity;BME280_pressure;Samples;Min_cycle;Max_cycle;Signal;HPM_P1;HPM_P2
2023/11/19 00:02:22;;;;;;;55.20;32.70;;;;;;;2.45;91.21;100795.98;129320;1263;114747;-62
2023/11/19 00:05:24;;;;;;;56.80;33.00;;;;;;;2.42;91.40;100800.58;129313;1282;114831;-65
2023/11/19 00:08:27;;;;;;;55.00;35.00;;;;;;;2.37;91.43;100799.04;129453;1263;114719;-60
2023/11/19 00:11:29;;;;;;;56.90;34.20;;;;;;;2.34;91.68;100791.83;129486;1261;116462;-60
2023/11/19 00:14:31;;;;;;;51.40;31.70;;;;;;;2.31;91.74;100780.58;129457;1262;114706;-60
2023/11/19 00:17:33;;;;;;;58.10;35.00;;;;;;;2.27;91.70;100765.44;129421;1263;115532;-62
2023/11/19 00:20:35;;;;;;;57.80;33.00;;;;;;;2.23;91.95;100751.20;129400;1278;114828;-60
2023/11/19 00:23:37;;;;;;;57.40;34.30;;;;;;;2.19;91.98;100751.92;129452;1275;115255;-62
2023/11/19 00:26:40;;;;;;;57.00;35.20;;;;;;;2.17;91.96;100753.72;129521;1282;114645;-62
2023/11/19 00:29:42;;;;;;;54.00;32.60;;;;;;;2.14;92.13;100744.23;129460;1265;114792;-63
2023/11/19 00:32:48;;;;;;;57.40;32.50;;;;;;;2.12;92.20;100735.41;129716;1262;116311;-62
2023/11/19 00:36:04;;;;;;;57.00;33.50;;;;;;;2.11;92.34;100726.63;129643;1264;114851;-63
2023/11/19 00:39:23;;;;;;;59.30;33.90;;;;;;;2.09;92.52;100718.36;129543;1265;114748;-63
2023/11/19 00:42:25;;;;;;;54.90;32.30;;;;;;;2.07;92.53;100710.43;129608;1260;115186;-61
2023/11/19 00:45:27;;;;;;;58.30;31.90;;;;;;;2.07;92.61;100713.09;129530;1260;114888;-62
2023/11/19 00:48:29;;;;;;;47.80;31.00;;;;;;;2.05;92.50;100703.95;129176;1268;128593;-64
2023/11/19 00:51:34;;;;;;;52.80;32.50;;;;;;;2.03;92.51;100690.05;129592;1281;114738;-62
2023/11/19 00:54:36;;;;;;;53.50;32.50;;;;;;;2.02;92.85;100676.66;129388;1264;114679;-62
2023/11/19 00:57:38;;;;;;;55.30;32.00;;;;;;;1.98;92.58;100672.30;129382;1265;114643;-60
2023/11/19 01:00:40;;;;;;;54.40;30.60;;;;;;;1.94;92.53;100674.45;129499;1270;115129;-62
2023/11/19 01:03:43;;;;;;;50.90;31.50;;;;;;;1.89;92.52;100674.48;129472;1281;114803;-62
2023/11/19 01:06:45;;;;;;;50.20;30.30;;;;;;;1.85;92.51;100668.17;129313;1264;114788;-61
2023/11/19 01:09:47;;;;;;;49.20;29.80;;;;;;;1.79;92.60;100654.13;129502;1264;114744;-62
2023/11/19 01:12:49;;;;;;;54.20;31.00;;;;;;;1.74;92.41;100641.13;129324;1265;115291;-61
2023/11/19 01:15:51;;;;;;;49.10;29.90;;;;;;;1.68;92.47;100627.97;129495;1264;115064;-62
2023/11/19 01:18:53;;;;;;;54.80;31.00;;;;;;;1.63;92.47;100621.33;129497;1277;114908;-65
2023/11/19 01:21:55;;;;;;;48.70;29.20;;;;;;;1.59;92.77;100606.58;129603;1262;114930;-62
2023/11/19 01:24:58;;;;;;;57.00;29.20;;;;;;;1.54;92.73;100603.79;129367;1260;114735;-61
2023/11/19 01:28:01;;;;;;;49.90;29.40;;;;;;;1.48;92.97;100594.50;129379;1259;114721;-62
2023/11/19 01:31:04;;;;;;;51.40;30.10;;;;;;;1.44;92.86;100580.97;129485;1281;128492;-62
2023/11/19 01:34:06;;;;;;;53.00;29.80;;;;;;;1.40;93.00;100570.98;129506;1262;115505;-62
2023/11/19 01:37:12;;;;;;;52.20;27.80;;;;;;;1.35;92.92;100576.29;129392;1281;115091;-61
2023/11/19 01:40:15;;;;;;;55.00;31.50;;;;;;;1.32;92.67;100571.20;129566;1260;114726;-64
2023/11/19 01:43:34;;;;;;;49.50;29.20;;;;;;;1.29;92.95;100564.89;129445;1262;115395;-62
2023/11/19 01:46:36;;;;;;;50.70;29.70;;;;;;;1.28;93.12;100554.17;129144;1262;114805;-63
2023/11/19 01:49:38;;;;;;;53.70;29.60;;;;;;;1.28;93.06;100557.69;129464;1259;114724;-62
2023/11/19 01:52:41;;;;;;;46.80;26.80;;;;;;;1.27;92.99;100559.45;129369;1259;115344;-62
2023/11/19 01:55:42;;;;;;;51.30;29.00;;;;;;;1.27;93.11;100557.17;129432;1262;114632;-61
2023/11/19 01:58:45;;;;;;;51.50;30.00;;;;;;;1.29;93.33;100555.05;129381;1265;114723;-62
2023/11/19 02:01:47;;;;;;;52.90;28.70;;;;;;;1.31;93.22;100548.17;129453;1258;115116;-62
2023/11/19 02:04:50;;;;;;;52.10;31.00;;;;;;;1.34;93.37;100544.62;129535;1262;114719;-61
2023/11/19 02:07:52;;;;;;;55.50;32.20;;;;;;;1.36;93.32;100537.91;129489;1262;114710;-61
2023/11/19 02:10:57;;;;;;;47.50;29.10;;;;;;;1.38;93.13;100528.59;129504;1260;114737;-62
2023/11/19 02:14:07;;;;;;;53.30;29.90;;;;;;;1.38;93.19;100528.41;129498;1266;116491;-68
2023/11/19 02:17:34;;;;;;;52.10;31.10;;;;;;;1.38;93.32;100535.27;129706;1260;114731;-67
2023/11/19 02:20:36;;;;;;;54.80;31.10;;;;;;;1.39;93.30;100531.57;129537;1259;114717;-61
2023/11/19 02:23:38;;;;;;;51.20;30.10;;;;;;;1.40;93.30;100521.89;129547;1281;114741;-61
2023/11/19 02:26:44;;;;;;;53.90;29.30;;;;;;;1.40;93.25;100513.43;129505;1265;114675;-61
2023/11/19 02:29:47;;;;;;;51.00;30.40;;;;;;;1.42;93.08;100509.73;129394;1282;128869;-60
2023/11/19 02:32:49;;;;;;;50.30;28.80;;;;;;;1.43;93.34;100504.78;129224;1274;116504;-63
2023/11/19 02:35:51;;;;;;;50.20;29.60;;;;;;;1.45;93.19;100496.84;129429;1260;114688;-62
2023/11/19 02:38:54;;;;;;;50.90;30.10;;;;;;;1.45;93.14;100489.61;129544;1264;114735;-62
2023/11/19 02:42:01;;;;;;;52.90;29.20;;;;;;;1.46;93.09;100485.23;129638;1267;114817;-67
2023/11/19 02:45:14;;;;;;;48.70;28.80;;;;;;;1.47;93.25;100475.89;129656;1275;114694;-60
2023/11/19 02:48:16;;;;;;;54.80;29.90;;;;;;;1.46;93.13;100473.07;129229;1281;128005;-61
2023/11/19 02:51:18;;;;;;;48.80;29.90;;;;;;;1.45;93.20;100470.45;129452;1262;114710;-66
2023/11/19 02:54:26;;;;;;;56.30;30.60;;;;;;;1.45;93.12;100475.38;129944;1262;114827;-67
2023/11/19 02:57:32;;;;;;;56.30;31.90;;;;;;;1.45;93.05;100478.71;129368;1266;114772;-65
2023/11/19 03:00:37;;;;;;;52.80;29.80;;;;;;;1.47;93.13;100460.94;129547;1259;114719;-63
2023/11/19 03:03:40;;;;;;;57.40;30.40;;;;;;;1.48;92.92;100450.02;129423;1262;114817;-66
2023/11/19 03:06:42;;;;;;;49.10;29.00;;;;;;;1.48;93.14;100450.18;129538;1259;114831;-62
2023/11/19 03:09:44;;;;;;;52.90;30.00;;;;;;;1.48;92.91;100435.92;129370;1276;114752;-65
2023/11/19 03:12:46;;;;;;;53.90;28.80;;;;;;;1.49;93.18;100429.58;129663;1263;115392;-63
2023/11/19 03:15:48;;;;;;;49.50;28.50;;;;;;;1.47;92.79;100417.80;129472;1260;114876;-64
2023/11/19 03:18:50;;;;;;;53.40;30.10;;;;;;;1.47;92.73;100411.66;129865;1259;115235;-69
2023/11/19 03:21:52;;;;;;;52.70;29.10;;;;;;;1.48;92.91;100403.55;130028;1262;114798;-65
2023/11/19 03:24:54;;;;;;;49.60;28.90;;;;;;;1.48;93.07;100401.95;129148;1268;115058;-64
2023/11/19 03:27:58;;;;;;;51.20;30.00;;;;;;;1.48;92.88;100395.98;129302;1272;115037;-63
2023/11/19 03:31:00;;;;;;;51.30;30.10;;;;;;;1.48;92.84;100396.85;129489;1264;115167;-63
2023/11/19 03:34:02;;;;;;;55.20;29.10;;;;;;;1.48;92.97;100392.27;129858;1260;115286;-62
2023/11/19 03:37:04;;;;;;;54.00;28.90;;;;;;;1.49;92.99;100388.40;129790;1262;114778;-62
2023/11/19 03:40:07;;;;;;;56.60;27.80;;;;;;;1.50;93.08;100392.41;129411;1263;114720;-62
2023/11/19 03:43:09;;;;;;;54.00;30.00;;;;;;;1.51;92.98;100381.33;129498;1259;116184;-63
2023/11/19 03:46:24;;;;;;;47.50;28.30;;;;;;;1.52;92.93;100373.22;129888;1260;115113;-64
2023/11/19 03:49:34;;;;;;;45.30;27.90;;;;;;;1.53;92.84;100360.89;129546;1282;129667;-65
2023/11/19 03:52:36;;;;;;;52.10;28.80;;;;;;;1.53;92.67;100351.56;129693;1264;114717;-63
2023/11/19 03:55:38;;;;;;;49.40;29.20;;;;;;;1.53;92.78;100349.45;129687;1259;114738;-64
2023/11/19 03:58:40;;;;;;;49.70;28.10;;;;;;;1.53;92.75;100340.98;129184;1259;114986;-62
2023/11/19 04:01:45;;;;;;;50.00;27.90;;;;;;;1.55;92.74;100330.95;129346;1262;115195;-63
2023/11/19 04:04:48;;;;;;;50.20;28.00;;;;;;;1.56;92.90;100325.84;129395;1281;114758;-62
2023/11/19 04:07:50;;;;;;;55.10;27.20;;;;;;;1.57;92.67;100325.11;129339;1262;114804;-62
2023/11/19 04:10:53;;;;;;;45.60;26.60;;;;;;;1.58;92.43;100324.22;129524;1259;115326;-63
2023/11/19 04:13:55;;;;;;;49.30;28.10;;;;;;;1.59;92.49;100319.27;129322;1260;116527;-62
2023/11/19 04:16:57;;;;;;;45.60;26.90;;;;;;;1.61;92.34;100298.83;129377;1277;115091;-62
2023/11/19 04:19:59;;;;;;;45.90;26.30;;;;;;;1.62;92.41;100284.39;130141;1263;114709;-62
2023/11/19 04:23:01;;;;;;;44.70;25.90;;;;;;;1.62;92.52;100275.94;129146;1260;114824;-62
2023/11/19 04:26:04;;;;;;;45.20;25.70;;;;;;;1.62;92.55;100262.56;129332;1281;114734;-62
2023/11/19 04:29:08;;;;;;;44.40;24.90;;;;;;;1.62;92.28;100260.10;129563;1262;115144;-63
2023/11/19 04:32:10;;;;;;;45.20;23.80;;;;;;;1.62;92.29;100247.25;129455;1262;114799;-64
2023/11/19 04:35:11;;;;;;;41.90;24.90;;;;;;;1.63;92.22;100230.87;129428;1262;114805;-64
2023/11/19 04:38:15;;;;;;;42.00;25.00;;;;;;;1.65;92.58;100215.70;129889;1262;114813;-70
2023/11/19 04:41:31;;;;;;;38.40;22.60;;;;;;;1.67;92.24;100200.34;129273;1268;114924;-65
2023/11/19 04:44:40;;;;;;;38.90;23.50;;;;;;;1.68;92.21;100207.55;129284;1265;115004;-66
2023/11/19 04:47:50;;;;;;;39.60;22.80;;;;;;;1.69;92.13;100207.36;129393;1262;129249;-61
2023/11/19 04:50:52;;;;;;;37.70;23.10;;;;;;;1.70;92.28;100205.77;129291;1265;114826;-61
2023/11/19 04:53:55;;;;;;;37.50;22.00;;;;;;;1.72;92.18;100202.04;129237;1262;114830;-60
2023/11/19 04:56:57;;;;;;;40.90;24.50;;;;;;;1.73;92.26;100201.49;129099;1268;114995;-60
2023/11/19 05:00:00;;;;;;;36.90;22.10;;;;;;;1.74;91.99;100201.48;129057;1267;115143;-60
2023/11/19 05:03:03;;;;;;;39.20;21.50;;;;;;;1.76;92.10;100196.70;129205;1285;114942;-60
2023/11/19 05:06:06;;;;;;;38.70;24.90;;;;;;;1.77;92.09;100186.81;129195;1263;114891;-59
2023/11/19 05:09:08;;;;;;;38.60;22.50;;;;;;;1.81;91.96;100184.30;129269;1265;116535;-60
2023/11/19 05:12:12;;;;;;;40.80;22.80;;;;;;;1.82;91.92;100181.11;129172;1271;116514;-60
2023/11/19 05:15:14;;;;;;;37.90;21.30;;;;;;;1.83;91.88;100179.16;129190;1262;114819;-60
2023/11/19 05:18:16;;;;;;;38.00;22.00;;;;;;;1.84;91.83;100176.34;129276;1265;115183;-60
2023/11/19 05:21:18;;;;;;;39.90;23.10;;;;;;;1.84;91.88;100165.58;129232;1265;114975;-60
2023/11/19 05:24:20;;;;;;;36.20;21.10;;;;;;;1.84;92.00;100153.60;129105;1276;114830;-60
2023/11/19 05:27:23;;;;;;;40.30;23.10;;;;;;;1.84;91.79;100134.23;129420;1265;114865;-60
2023/11/19 05:30:25;;;;;;;37.80;22.20;;;;;;;1.85;91.83;100136.34;129530;1262;114725;-60
2023/11/19 05:33:27;;;;;;;40.20;22.40;;;;;;;1.86;92.02;100134.73;129449;1260;114737;-59
2023/11/19 05:36:29;;;;;;;36.80;21.20;;;;;;;1.86;91.79;100128.40;129329;1260;114778;-60
2023/11/19 05:39:32;;;;;;;36.00;21.20;;;;;;;1.87;92.02;100121.34;129488;1262;114725;-60
2023/11/19 05:42:33;;;;;;;35.10;21.40;;;;;;;1.88;91.82;100122.39;129516;1262;115187;-60
2023/11/19 05:45:35;;;;;;;38.60;23.70;;;;;;;1.86;91.83;100123.65;129149;1281;114876;-60
2023/11/19 05:48:38;;;;;;;36.50;22.00;;;;;;;1.85;91.87;100129.10;129379;1259;114738;-61
2023/11/19 05:51:40;;;;;;;39.30;21.80;;;;;;;1.86;91.98;100122.95;129676;1262;114767;-60
2023/11/19 05:54:42;;;;;;;38.90;22.70;;;;;;;1.87;91.91;100110.41;129636;1262;114725;-59
2023/11/19 05:57:45;;;;;;;41.30;23.20;;;;;;;1.89;91.88;100105.99;129407;1263;115126;-60
2023/11/19 06:00:47;;;;;;;40.70;23.90;;;;;;;1.90;92.03;100099.63;129516;1281;114703;-60
2023/11/19 06:03:49;;;;;;;35.40;22.00;;;;;;;1.93;92.12;100104.33;129304;1264;114896;-61
2023/11/19 06:06:52;;;;;;;42.60;23.30;;;;;;;1.95;92.19;100107.11;129440;1282;114741;-60
2023/11/19 06:09:54;;;;;;;34.20;20.90;;;;;;;1.97;92.18;100099.69;129353;1262;114737;-59
2023/11/19 06:12:59;;;;;;;39.10;21.80;;;;;;;1.99;91.89;100086.97;129662;1262;114732;-59
2023/11/19 06:16:02;;;;;;;38.90;22.10;;;;;;;2.01;92.03;100090.27;129447;1264;115155;-60
2023/11/19 06:19:04;;;;;;;39.30;23.10;;;;;;;2.04;92.15;100086.00;129694;1262;114870;-60
2023/11/19 06:22:06;;;;;;;34.80;21.60;;;;;;;2.08;92.21;100083.47;129388;1273;115292;-60
2023/11/19 06:25:09;;;;;;;32.00;19.70;;;;;;;2.11;92.16;100077.95;129469;1274;114740;-59
2023/11/19 06:28:11;;;;;;;35.90;21.70;;;;;;;2.15;92.09;100079.98;129301;1276;115342;-60
2023/11/19 06:31:15;;;;;;;42.40;20.50;;;;;;;2.17;92.23;100071.84;129495;1263;114785;-60
2023/11/19 06:34:20;;;;;;;35.50;21.30;;;;;;;2.20;92.02;100069.48;129290;1266;114657;-60
2023/11/19 06:37:23;;;;;;;31.90;20.40;;;;;;;2.22;92.08;100065.07;129456;1262;114893;-60
2023/11/19 06:40:25;;;;;;;37.80;22.20;;;;;;;2.24;92.02;100057.79;129472;1273;114654;-60
2023/11/19 06:43:27;;;;;;;31.60;20.20;;;;;;;2.27;92.21;100048.75;129512;1274;114740;-60
2023/11/19 06:46:29;;;;;;;37.30;22.10;;;;;;;2.30;92.10;100046.06;129236;1277;114807;-60
2023/11/19 06:49:32;;;;;;;32.70;20.80;;;;;;;2.33;92.03;100046.88;129405;1273;114739;-60
2023/11/19 06:52:34;;;;;;;32.10;18.80;;;;;;;2.35;91.93;100040.13;129518;1278;114844;-60
2023/11/19 06:55:36;;;;;;;33.30;20.20;;;;;;;2.39;91.78;100023.84;129549;1281;115215;-60
2023/11/19 06:58:39;;;;;;;31.50;19.10;;;;;;;2.42;91.83;100010.90;129461;1281;114761;-59
2023/11/19 07:01:43;;;;;;;33.90;20.00;;;;;;;2.46;91.86;100000.96;129530;1262;117201;-60
2023/11/19 07:04:45;;;;;;;34.90;20.80;;;;;;;2.47;91.77;99993.19;129555;1259;115128;-60
2023/11/19 07:07:47;;;;;;;33.00;19.90;;;;;;;2.51;91.90;99990.63;129329;1270;114869;-59
2023/11/19 07:10:49;;;;;;;32.60;21.10;;;;;;;2.54;91.96;99991.10;129534;1263;114722;-60
2023/11/19 07:13:52;;;;;;;34.50;20.30;;;;;;;2.60;91.81;99985.85;129505;1271;114775;-60
2023/11/19 07:16:55;;;;;;;30.80;19.20;;;;;;;2.67;92.03;99981.12;129427;1259;114830;-60
2023/11/19 07:19:59;;;;;;;32.40;19.40;;;;;;;2.72;91.81;99981.52;129651;1264;115379;-61
2023/11/19 07:23:02;;;;;;;30.00;18.70;;;;;;;2.78;91.78;99969.05;129387;1281;114806;-60
2023/11/19 07:26:08;;;;;;;32.10;19.70;;;;;;;2.82;91.63;99968.27;129659;1264;114735;-61
2023/11/19 07:29:10;;;;;;;34.80;19.90;;;;;;;2.87;91.65;99962.86;129418;1268;116543;-60
2023/11/19 07:32:14;;;;;;;32.20;18.90;;;;;;;2.91;91.51;99955.53;129418;1276;114847;-61
2023/11/19 07:35:17;;;;;;;30.00;19.10;;;;;;;2.97;91.44;99959.80;129611;1263;115272;-60
2023/11/19 07:38:19;;;;;;;32.60;19.30;;;;;;;3.00;91.08;99956.55;129441;1267;114739;-60
2023/11/19 07:41:21;;;;;;;32.00;18.40;;;;;;;3.02;90.93;99949.27;129644;1261;115470;-60
2023/11/19 07:44:24;;;;;;;32.50;20.00;;;;;;;3.04;90.99;99956.09;129485;1281;129971;-60
2023/11/19 07:47:28;;;;;;;31.00;18.30;;;;;;;3.11;91.05;99951.89;129489;1263;114792;-60
2023/11/19 07:50:31;;;;;;;31.20;18.50;;;;;;;3.17;91.00;99937.79;129371;1266;114899;-60
2023/11/19 07:53:34;;;;;;;29.40;17.90;;;;;;;3.23;90.73;99934.84;129469;1263;114834;-60
2023/11/19 07:56:36;;;;;;;27.90;18.20;;;;;;;3.27;90.81;99928.71;129498;1263;114737;-60
2023/11/19 07:59:39;;;;;;;30.50;17.90;;;;;;;3.30;90.60;99929.16;129555;1274;114725;-60
2023/11/19 08:02:41;;;;;;;27.10;17.30;;;;;;;3.32;90.34;99931.95;129314;1281;128480;-61
2023/11/19 08:05:44;;;;;;;25.20;17.40;;;;;;;3.33;90.56;99933.49;129526;1281;115252;-59
2023/11/19 08:08:48;;;;;;;25.30;17.00;;;;;;;3.34;90.69;99926.76;129751;1262;114728;-60
2023/11/19 08:11:51;;;;;;;27.70;17.90;;;;;;;3.36;90.60;99918.25;129676;1263;114726;-61
2023/11/19 08:14:59;;;;;;;27.10;18.50;;;;;;;3.36;90.61;99910.84;129584;1266;114868;-63
2023/11/19 08:18:08;;;;;;;25.90;16.70;;;;;;;3.36;90.62;99900.95;129334;1273;128287;-61
2023/11/19 08:21:11;;;;;;;26.10;17.30;;;;;;;3.35;90.49;99899.20;129371;1264;115243;-60
2023/11/19 08:24:13;;;;;;;25.60;16.80;;;;;;;3.36;90.54;99891.41;129555;1272;114899;-59
2023/11/19 08:27:16;;;;;;;31.80;19.80;;;;;;;3.34;90.35;99881.76;129626;1273;114725;-60
2023/11/19 08:30:19;;;;;;;28.00;17.90;;;;;;;3.31;90.32;99883.77;129837;1278;114651;-62
2023/11/19 08:33:22;;;;;;;29.40;17.50;;;;;;;3.30;90.54;99877.63;129485;1275;115368;-60
2023/11/19 08:36:24;;;;;;;28.80;17.30;;;;;;;3.30;90.57;99871.65;129591;1262;115360;-60
2023/11/19 08:39:26;;;;;;;32.20;19.40;;;;;;;3.29;90.76;99865.14;129619;1272;114817;-61
2023/11/19 08:42:29;;;;;;;29.80;18.60;;;;;;;3.26;90.91;99857.45;129651;1274;115064;-60
2023/11/19 08:45:31;;;;;;;32.50;19.90;;;;;;;3.23;91.06;99854.17;129607;1263;114655;-61
2023/11/19 08:48:34;;;;;;;31.90;20.00;;;;;;;3.18;91.14;99842.98;129500;1274;114798;-60
2023/11/19 08:51:36;;;;;;;33.80;21.60;;;;;;;3.10;90.92;99840.39;129825;1263;114757;-61
2023/11/19 08:54:48;;;;;;;35.10;21.90;;;;;;;3.03;90.97;99834.23;129629;1266;114965;-61
2023/11/19 08:57:53;;;;;;;34.10;21.00;;;;;;;2.98;91.37;99825.54;126541;1264;3933855;-61
2023/11/19 09:00:58;;;;;;;35.10;20.00;;;;;;;2.90;91.17;99814.61;129450;1261;115257;-61
2023/11/19 09:04:00;;;;;;;;;;;;;;;2.81;91.22;99815.38;129745;1281;115340;-60
2023/11/19 09:07:03;;;;;;;36.70;21.10;;;;;;;2.74;91.57;99816.79;129589;1273;115150;-62
2023/11/19 09:10:08;;;;;;;29.30;17.70;;;;;;;2.72;91.75;99811.19;129641;1266;114928;-61
2023/11/19 09:13:10;;;;;;;18.80;12.80;;;;;;;2.72;92.00;99803.09;129593;1281;128033;-60
2023/11/19 09:16:12;;;;;;;34.30;18.60;;;;;;;2.71;92.17;99796.77;129579;1272;114813;-60
2023/11/19 09:19:15;;;;;;;32.60;19.40;;;;;;;2.73;92.27;99790.02;129572;1264;114811;-60
2023/11/19 09:22:17;;;;;;;36.40;20.90;;;;;;;2.75;92.45;99795.79;129666;1263;114756;-61
2023/11/19 09:25:19;;;;;;;32.40;20.00;;;;;;;2.78;92.64;99796.43;129688;1263;115395;-60
2023/11/19 09:28:22;;;;;;;32.80;20.70;;;;;;;2.78;92.55;99791.14;129550;1261;114756;-60
2023/11/19 09:31:24;;;;;;;33.30;19.50;;;;;;;2.81;92.90;99785.23;129537;1267;114818;-60
2023/11/19 09:34:27;;;;;;;32.40;19.80;;;;;;;2.83;92.96;99775.10;129525;1281;129428;-60
2023/11/19 09:37:30;;;;;;;32.80;20.90;;;;;;;2.86;93.28;99774.85;129556;1264;115251;-60
2023/11/19 09:40:35;;;;;;;36.30;21.10;;;;;;;2.92;93.39;99773.46;129554;1265;114719;-61
2023/11/19 09:43:41;;;;;;;32.80;20.10;;;;;;;2.97;93.33;99768.95;129666;1274;114815;-59
2023/11/19 09:46:44;;;;;;;33.70;20.30;;;;;;;3.01;93.35;99762.28;129801;1260;114690;-60
2023/11/19 09:49:47;;;;;;;32.90;20.60;;;;;;;3.07;93.37;99757.20;129643;1266;114696;-61
2023/11/19 09:52:49;;;;;;;28.20;17.30;;;;;;;3.14;93.62;99757.20;129722;1263;114754;-60
2023/11/19 09:55:53;;;;;;;33.20;19.30;;;;;;;3.17;93.38;99744.21;129831;1263;114843;-61
2023/11/19 09:58:55;;;;;;;29.70;17.50;;;;;;;3.23;93.68;99736.48;129720;1276;114872;-60
2023/11/19 10:01:59;;;;;;;28.40;18.50;;;;;;;3.28;93.50;99729.80;129716;1281;114819;-60
2023/11/19 10:05:05;;;;;;;31.00;17.80;;;;;;;3.33;93.52;99716.41;129720;1262;114700;-60
2023/11/19 10:08:13;;;;;;;31.20;18.40;;;;;;;3.34;93.52;99703.66;129189;1271;128402;-61
2023/11/19 10:11:18;;;;;;;26.50;16.90;;;;;;;3.37;93.60;99689.30;129630;1275;115267;-60
2023/11/19 10:14:22;;;;;;;;;;;;;;;3.40;93.75;99682.14;129543;1263;115354;-59
2023/11/19 10:17:42;;;;;;;32.00;18.50;;;;;;;3.44;93.90;99681.84;129806;1260;114793;-60
2023/11/19 10:20:45;;;;;;;28.30;16.90;;;;;;;3.49;94.04;99678.86;129475;1264;115425;-60
2023/11/19 10:23:59;;;;;;;28.50;16.90;;;;;;;3.55;94.16;99675.86;129613;1263;114841;-61
2023/11/19 10:27:05;;;;;;;28.00;19.30;;;;;;;3.65;94.39;99667.62;129236;1281;114954;-60
2023/11/19 10:30:07;;;;;;;;;;;;;;;3.79;94.64;99660.46;129580;1263;114785;-61
2023/11/19 10:33:20;;;;;;;22.70;14.90;;;;;;;3.93;94.93;99647.11;129638;1277;114877;-67
2023/11/19 10:36:25;;;;;;;28.10;14.50;;;;;;;4.15;94.97;99631.02;129594;1267;114781;-66
2023/11/19 10:40:00;;;;;;;26.00;14.60;;;;;;;4.36;95.10;99621.83;129645;1264;129410;-68
2023/11/19 10:43:03;;;;;;;23.10;13.70;;;;;;;4.51;94.56;99612.44;130002;1266;115162;-69
2023/11/19 10:46:14;;;;;;;22.30;14.00;;;;;;;4.62;94.50;99606.41;129972;1261;115313;-67
2023/11/19 10:49:17;;;;;;;21.60;13.70;;;;;;;4.72;94.37;99603.55;129677;1276;114692;-70
2023/11/19 10:52:20;;;;;;;20.30;13.20;;;;;;;4.81;94.24;99603.41;129909;1281;114695;-68
2023/11/19 10:55:30;;;;;;;21.00;13.70;;;;;;;4.87;94.19;99603.20;129786;1264;114721;-68
2023/11/19 10:58:33;;;;;;;20.00;12.70;;;;;;;4.90;94.31;99594.06;129660;1264;115230;-69
2023/11/19 11:01:41;;;;;;;17.60;12.60;;;;;;;4.93;94.01;99602.61;129678;1266;115231;-70
2023/11/19 11:04:44;;;;;;;22.40;13.50;;;;;;;4.94;94.05;99593.71;129680;1263;114810;-71
2023/11/19 11:07:46;;;;;;;18.20;11.70;;;;;;;4.98;94.14;99593.73;129720;1264;115196;-69
2023/11/19 11:10:55;;;;;;;22.40;10.70;;;;;;;4.97;93.83;99579.60;129923;1264;114727;-71
2023/11/19 11:13:58;;;;;;;17.80;11.60;;;;;;;4.96;93.91;99570.64;129721;1275;129046;-69
2023/11/19 11:17:02;;;;;;;17.70;11.10;;;;;;;4.97;93.98;99573.98;129917;1264;115407;-71
2023/11/19 11:20:06;;;;;;;20.60;12.50;;;;;;;4.95;94.22;99577.77;129824;1266;114808;-70
2023/11/19 11:23:27;;;;;;;18.20;12.30;;;;;;;4.98;94.36;99578.55;129623;1270;114803;-69
2023/11/19 11:26:53;;;;;;;21.30;12.10;;;;;;;5.02;94.32;99577.86;129860;1262;114696;-70
2023/11/19 11:30:20;;;;;;;18.30;11.80;;;;;;;5.04;94.62;99568.73;129532;1264;128253;-67
2023/11/19 11:33:34;;;;;;;18.60;11.50;;;;;;;5.05;94.68;99562.69;129828;1264;115254;-67
2023/11/19 11:36:51;;;;;;;22.40;14.30;;;;;;;5.01;94.44;99553.10;129528;1281;114888;-69
2023/11/19 11:39:54;;;;;;;20.60;13.10;;;;;;;5.01;94.48;99550.64;129632;1264;114929;-68
2023/11/19 11:42:56;;;;;;;24.40;13.10;;;;;;;5.02;94.58;99549.71;129841;1273;114724;-69
2023/11/19 11:46:03;;;;;;;26.50;13.80;;;;;;;5.06;94.72;99546.91;129687;1263;114808;-68
2023/11/19 11:49:06;;;;;;;29.30;16.80;;;;;;;5.09;94.79;99542.36;129264;1261;115285;-67
2023/11/19 11:52:14;;;;;;;22.60;12.70;;;;;;;5.11;94.99;99544.58;129374;1261;115151;-67
2023/11/19 11:55:16;;;;;;;16.50;9.90;;;;;;;5.14;94.77;99545.35;129739;1260;115416;-68
2023/11/19 11:58:26;;;;;;;17.60;10.40;;;;;;;5.15;94.91;99542.45;129429;1262;115243;-67
2023/11/19 12:01:30;;;;;;;14.40;9.70;;;;;;;5.19;95.00;99534.88;129181;1266;128467;-69
2023/11/19 12:04:34;;;;;;;15.60;8.00;;;;;;;5.25;95.15;99531.48;129661;1274;114786;-69
2023/11/19 12:07:39;;;;;;;18.40;9.60;;;;;;;5.28;95.07;99528.35;129871;1261;114719;-69
2023/11/19 12:10:49;;;;;;;17.30;11.20;;;;;;;5.32;94.98;99523.92;129679;1261;114837;-69
2023/11/19 12:13:58;;;;;;;12.00;8.70;;;;;;;5.37;95.03;99518.95;129451;1267;115533;-70
2023/11/19 12:17:03;;;;;;;12.00;6.70;;;;;;;5.41;95.17;99511.70;129914;1263;128060;-69
2023/11/19 12:20:11;;;;;;;10.20;6.50;;;;;;;5.47;95.33;99509.67;129909;1259;116600;-69
2023/11/19 12:23:14;;;;;;;12.60;7.40;;;;;;;5.56;95.47;99502.42;130166;1262;114693;-70
2023/11/19 12:26:37;;;;;;;10.20;6.60;;;;;;;5.66;95.59;99492.95;130633;1262;115132;-69
2023/11/19 12:29:44;;;;;;;11.80;7.20;;;;;;;5.76;95.64;99492.89;130157;1259;114811;-69
2023/11/19 12:32:49;;;;;;;9.00;5.90;;;;;;;5.84;95.56;99480.48;130049;1261;128152;-70
2023/11/19 12:35:52;;;;;;;8.60;5.00;;;;;;;5.92;95.61;99482.98;129977;1262;115384;-70
2023/11/19 12:38:56;;;;;;;11.30;6.40;;;;;;;6.00;95.60;99475.75;129673;1266;114856;-68
2023/11/19 12:42:00;;;;;;;7.40;5.00;;;;;;;6.08;95.70;99472.38;129950;1263;115231;-69
2023/11/19 12:45:06;;;;;;;17.70;9.10;;;;;;;6.18;95.90;99472.13;129729;1268;115103;-67
2023/11/19 12:48:12;;;;;;;13.10;7.50;;;;;;;6.28;95.90;99467.27;130041;1264;128947;-68
2023/11/19 12:51:19;;;;;;;8.60;5.30;;;;;;;6.38;95.62;99463.80;129920;1262;115174;-76
2023/11/19 12:54:38;;;;;;;15.30;5.90;;;;;;;6.44;95.64;99462.96;130105;1259;114745;-69
2023/11/19 12:57:45;;;;;;;8.90;5.70;;;;;;;6.47;95.20;99455.73;129992;1260;114792;-70
2023/11/19 13:01:00;;;;;;;10.10;5.50;;;;;;;6.48;95.37;99460.46;130064;1260;114801;-66
2023/11/19 13:04:19;;;;;;;10.70;6.10;;;;;;;6.52;95.34;99455.67;129810;1261;128902;-70
2023/11/19 13:07:26;;;;;;;8.80;5.60;;;;;;;6.60;95.45;99451.78;129644;1264;115242;-70
2023/11/19 13:10:33;;;;;;;9.70;5.70;;;;;;;6.68;95.58;99453.34;130137;1262;114748;-70
2023/11/19 13:13:59;;;;;;;9.50;6.10;;;;;;;6.73;95.56;99450.27;129766;1264;114773;-68
2023/11/19 13:17:05;;;;;;;10.60;5.60;;;;;;;6.78;95.66;99444.91;129945;1264;114736;-71
2023/11/19 13:20:07;;;;;;;8.70;5.90;;;;;;;6.86;95.69;99442.59;129833;1264;115383;-69
2023/11/19 13:23:14;;;;;;;11.00;5.90;;;;;;;6.95;95.85;99435.23;129817;1264;114775;-71
2023/11/19 13:26:16;;;;;;;11.00;7.70;;;;;;;7.05;95.70;99432.05;129645;1260;114916;-79
2023/11/19 13:29:19;;;;;;;16.10;8.20;;;;;;;7.14;95.76;99429.67;129778;1263;115201;-74
2023/11/19 13:32:23;;;;;;;12.20;7.10;;;;;;;7.19;95.85;99427.66;129828;1279;115351;-69
2023/11/19 13:35:27;;;;;;;9.70;6.10;;;;;;;7.22;95.54;99425.19;129802;1260;114743;-73
2023/11/19 13:38:29;;;;;;;13.70;6.70;;;;;;;7.23;95.47;99418.05;129778;1264;114720;-77
2023/11/19 13:41:32;;;;;;;11.40;7.00;;;;;;;7.23;95.79;99414.84;129824;1264;114734;-69
2023/11/19 13:44:34;;;;;;;11.70;7.40;;;;;;;7.26;95.62;99416.10;129449;1263;115265;-71
2023/11/19 13:47:36;;;;;;;18.30;12.20;;;;;;;7.31;95.58;99411.25;129858;1264;114756;-68
2023/11/19 13:50:38;;;;;;;18.30;10.00;;;;;;;7.36;95.88;99407.27;129844;1260;114677;-70
2023/11/19 13:53:40;;;;;;;20.40;11.10;;;;;;;7.39;95.74;99412.80;130001;1259;115711;-71
2023/11/19 13:56:44;;;;;;;16.30;10.40;;;;;;;7.42;95.91;99408.58;129642;1267;129104;-68